createdAt,value
2022-11-25T00:00:46.088Z,0.00
2022-11-25T00:01:46.185Z,0.00
2022-11-25T00:02:46.366Z,0.00
2022-11-25T00:03:46.092Z,0.00
2022-11-25T00:04:46.071Z,0.00
2022-11-25T00:05:46.078Z,0.00
2022-11-25T00:06:46.105Z,0.00
2022-11-25T00:07:46.133Z,0.00
2022-11-25T00:08:46.066Z,0.00
2022-11-25T00:09:46.086Z,0.00
2022-11-25T00:10:46.054Z,0.00
2022-11-25T00:11:46.060Z,0.00
2022-11-25T00:12:46.049Z,0.00
2022-11-25T00:13:46.043Z,0.00
2022-11-25T00:14:46.036Z,0.00
2022-11-25T00:15:46.034Z,0.00
2022-11-25T00:16:48.592Z,0.00
2022-11-25T00:17:46.028Z,0.00
2022-11-25T00:18:46.024Z,0.00
2022-11-25T00:19:46.019Z,0.00
2022-11-25T00:20:46.010Z,0.00
2022-11-25T00:21:46.012Z,0.00
2022-11-25T00:22:46.022Z,0.00
2022-11-25T00:23:46.007Z,0.00
2022-11-25T00:24:45.999Z,0.00
2022-11-25T00:25:45.997Z,0.00
2022-11-25T00:26:45.995Z,0.00
2022-11-25T00:27:45.990Z,0.00
2022-11-25T00:28:45.987Z,0.00
2022-11-25T00:29:45.987Z,0.00
2022-11-25T00:30:45.975Z,0.00
2022-11-25T00:31:46.020Z,0.00
2022-11-25T00:32:45.968Z,0.00
2022-11-25T00:33:45.971Z,0.00
2022-11-25T00:34:45.972Z,0.00
2022-11-25T00:35:45.959Z,0.00
2022-11-25T00:36:45.951Z,0.00
2022-11-25T00:37:45.954Z,0.00
2022-11-25T00:38:45.970Z,0.00
2022-11-25T00:39:45.954Z,0.00
2022-11-25T00:40:45.942Z,0.00
2022-11-25T00:41:45.935Z,0.00
2022-11-25T00:42:45.938Z,0.00
2022-11-25T00:43:45.929Z,0.00
2022-11-25T00:44:45.927Z,0.00
2022-11-25T00:45:45.989Z,0.00
2022-11-25T00:46:45.925Z,0.00
2022-11-25T00:47:45.914Z,0.00
2022-11-25T00:48:45.911Z,0.00
2022-11-25T00:49:45.913Z,0.00
2022-11-25T00:50:45.902Z,0.00
2022-11-25T00:51:45.905Z,0.00
2022-11-25T00:52:45.898Z,0.00
2022-11-25T00:53:45.892Z,0.00
2022-11-25T00:54:45.918Z,0.00
2022-11-25T00:55:45.885Z,0.00
2022-11-25T00:56:45.882Z,0.00
2022-11-25T00:57:45.875Z,0.00
2022-11-25T00:58:45.880Z,0.00
2022-11-25T00:59:45.871Z,0.00
2022-11-25T01:00:45.949Z,0.00
2022-11-25T01:01:45.962Z,0.00
2022-11-25T01:02:45.963Z,0.00
2022-11-25T01:03:45.855Z,0.00
2022-11-25T01:04:45.854Z,0.00
2022-11-25T01:05:45.851Z,0.00
2022-11-25T01:06:45.852Z,0.00
2022-11-25T01:07:45.908Z,0.00
2022-11-25T01:08:45.844Z,0.00
2022-11-25T01:09:45.845Z,0.00
2022-11-25T01:10:45.850Z,0.00
2022-11-25T01:11:45.826Z,0.00
2022-11-25T01:12:45.824Z,0.00
2022-11-25T01:13:45.818Z,0.00
2022-11-25T01:14:45.819Z,0.00
2022-11-25T01:15:45.831Z,0.00
2022-11-25T01:16:45.902Z,0.00
2022-11-25T01:17:45.802Z,0.00
2022-11-25T01:18:45.803Z,0.00
2022-11-25T01:19:45.794Z,0.00
2022-11-25T01:20:45.799Z,0.00
2022-11-25T01:21:45.796Z,0.00
2022-11-25T01:22:45.788Z,0.00
2022-11-25T01:23:45.780Z,0.00
2022-11-25T01:24:45.783Z,0.00
2022-11-25T01:25:45.778Z,0.00
2022-11-25T01:26:45.798Z,0.00
2022-11-25T01:27:45.771Z,0.00
2022-11-25T01:28:45.771Z,0.00
2022-11-25T01:29:45.760Z,0.00
2022-11-25T01:30:45.760Z,0.00
2022-11-25T01:31:45.823Z,0.00
2022-11-25T01:32:45.758Z,0.00
2022-11-25T01:33:45.750Z,0.00
2022-11-25T01:34:45.750Z,0.00
2022-11-25T01:35:45.741Z,0.00
2022-11-25T01:36:45.740Z,0.00
2022-11-25T01:37:45.731Z,0.00
2022-11-25T01:38:45.731Z,0.00
2022-11-25T01:39:45.725Z,0.00
2022-11-25T01:40:46.052Z,0.00
2022-11-25T01:41:45.722Z,0.00
2022-11-25T01:42:45.745Z,0.00
2022-11-25T01:43:45.711Z,0.00
2022-11-25T01:44:45.710Z,0.00
2022-11-25T01:45:45.763Z,0.00
2022-11-25T01:46:45.701Z,0.00
2022-11-25T01:47:45.694Z,0.00
2022-11-25T01:48:45.698Z,0.00
2022-11-25T01:49:45.687Z,0.00
2022-11-25T01:50:45.692Z,0.00
2022-11-25T01:51:45.681Z,0.00
2022-11-25T01:52:45.679Z,0.00
2022-11-25T01:53:45.677Z,0.00
2022-11-25T01:54:45.682Z,0.00
2022-11-25T01:55:45.667Z,0.00
2022-11-25T01:56:45.990Z,0.00
2022-11-25T01:57:45.659Z,0.00
2022-11-25T01:58:45.987Z,0.00
2022-11-25T01:59:45.650Z,0.00
2022-11-25T02:00:45.695Z,0.00
2022-11-25T02:01:45.723Z,0.00
2022-11-25T02:02:45.735Z,0.00
2022-11-25T02:03:45.649Z,0.00
2022-11-25T02:04:45.967Z,0.00
2022-11-25T02:05:45.633Z,0.00
2022-11-25T02:06:45.629Z,0.00
2022-11-25T02:07:45.737Z,0.00
2022-11-25T02:08:45.622Z,0.00
2022-11-25T02:09:45.612Z,0.00
2022-11-25T02:10:45.619Z,0.00
2022-11-25T02:11:45.607Z,0.00
2022-11-25T02:12:45.628Z,0.00
2022-11-25T02:13:45.601Z,0.00
2022-11-25T02:14:45.626Z,0.00
2022-11-25T02:15:45.592Z,0.00
2022-11-25T02:16:45.737Z,0.00
2022-11-25T02:17:45.589Z,0.00
2022-11-25T02:18:45.586Z,0.00
2022-11-25T02:19:45.578Z,0.00
2022-11-25T02:20:45.581Z,0.00
2022-11-25T02:21:45.574Z,0.00
2022-11-25T02:22:45.578Z,0.00
2022-11-25T02:23:45.563Z,0.00
2022-11-25T02:24:45.565Z,0.00
2022-11-25T02:25:45.565Z,0.00
2022-11-25T02:26:45.558Z,0.00
2022-11-25T02:27:45.551Z,0.00
2022-11-25T02:28:45.549Z,0.00
2022-11-25T02:29:45.545Z,0.00
2022-11-25T02:30:45.565Z,0.00
2022-11-25T02:31:45.654Z,0.00
2022-11-25T02:32:45.536Z,0.00
2022-11-25T02:33:45.531Z,0.00
2022-11-25T02:34:45.528Z,0.00
2022-11-25T02:35:45.530Z,0.00
2022-11-25T02:37:45.518Z,0.00
2022-11-25T02:38:45.511Z,0.00
2022-11-25T02:39:45.509Z,0.00
2022-11-25T02:40:45.506Z,0.00
2022-11-25T02:41:45.506Z,0.00
2022-11-25T02:42:45.497Z,0.00
2022-11-25T02:43:45.497Z,0.00
2022-11-25T02:44:45.490Z,0.00
2022-11-25T02:45:45.560Z,0.00
2022-11-25T02:46:45.504Z,0.00
2022-11-25T02:47:45.482Z,0.00
2022-11-25T02:49:07.970Z,0.00
2022-11-25T02:49:45.472Z,0.00
2022-11-25T02:50:45.470Z,0.00
2022-11-25T02:51:45.469Z,0.00
2022-11-25T02:52:45.468Z,0.00
2022-11-25T02:53:45.472Z,0.00
2022-11-25T02:54:45.449Z,0.00
2022-11-25T02:55:45.452Z,0.00
2022-11-25T02:56:45.445Z,0.00
2022-11-25T02:57:45.444Z,0.00
2022-11-25T02:58:45.437Z,0.00
2022-11-25T02:59:45.442Z,0.00
2022-11-25T03:00:45.494Z,0.00
2022-11-25T03:01:45.480Z,0.00
2022-11-25T03:02:45.450Z,0.00
2022-11-25T03:03:45.421Z,0.00
2022-11-25T03:04:45.420Z,0.00
2022-11-25T03:05:45.416Z,0.00
2022-11-25T03:06:45.413Z,0.00
2022-11-25T03:07:45.456Z,0.00
2022-11-25T03:08:45.398Z,0.00
2022-11-25T03:09:45.402Z,0.00
2022-11-25T03:10:45.397Z,0.00
2022-11-25T03:11:45.398Z,0.00
2022-11-25T03:12:45.386Z,0.00
2022-11-25T03:13:45.391Z,0.00
2022-11-25T03:14:45.381Z,0.00
2022-11-25T03:15:45.383Z,0.00
2022-11-25T03:16:45.437Z,0.00
2022-11-25T03:17:45.373Z,0.00
2022-11-25T03:18:45.397Z,0.00
2022-11-25T03:19:45.366Z,0.00
2022-11-25T03:20:45.382Z,0.00
2022-11-25T03:21:45.360Z,0.00
2022-11-25T03:22:45.351Z,0.00
2022-11-25T03:23:45.349Z,0.00
2022-11-25T03:24:45.345Z,0.00
2022-11-25T03:25:45.350Z,0.00
2022-11-25T03:26:45.337Z,0.00
2022-11-25T03:27:45.334Z,0.00
2022-11-25T03:28:45.335Z,0.00
2022-11-25T03:29:45.331Z,0.00
2022-11-25T03:30:45.325Z,0.00
2022-11-25T03:31:45.354Z,0.00
2022-11-25T03:32:45.313Z,0.00
2022-11-25T03:33:45.321Z,0.00
2022-11-25T03:34:45.395Z,0.00
2022-11-25T03:35:45.309Z,0.00
2022-11-25T03:36:45.353Z,0.00
2022-11-25T03:37:45.300Z,0.00
2022-11-25T03:38:45.618Z,0.00
2022-11-25T03:39:45.290Z,0.00
2022-11-25T03:40:45.286Z,0.00
2022-11-25T03:41:45.285Z,0.00
2022-11-25T03:42:45.284Z,0.00
2022-11-25T03:43:45.282Z,0.00
2022-11-25T03:44:45.271Z,0.00
2022-11-25T03:45:45.309Z,0.00
2022-11-25T03:46:45.266Z,0.00
2022-11-25T03:47:45.270Z,0.00
2022-11-25T03:48:45.261Z,0.00
2022-11-25T03:49:45.257Z,0.00
2022-11-25T03:50:45.272Z,0.00
2022-11-25T03:51:45.256Z,0.00
2022-11-25T03:52:45.256Z,0.00
2022-11-25T03:53:45.243Z,0.00
2022-11-25T03:54:45.237Z,0.00
2022-11-25T03:55:45.239Z,0.00
2022-11-25T03:56:45.234Z,0.00
2022-11-25T03:57:45.232Z,0.00
2022-11-25T03:58:45.227Z,0.00
2022-11-25T03:59:45.228Z,0.00
2022-11-25T04:00:45.215Z,0.00
2022-11-25T04:01:45.310Z,0.00
2022-11-25T04:02:45.237Z,0.00
2022-11-25T04:03:45.208Z,0.00
2022-11-25T04:04:45.202Z,0.00
2022-11-25T04:05:45.200Z,0.00
2022-11-25T04:06:45.210Z,0.00
2022-11-25T04:07:45.253Z,0.00
2022-11-25T04:08:45.191Z,0.00
2022-11-25T04:09:45.188Z,0.00
2022-11-25T04:10:45.182Z,0.00
2022-11-25T04:11:45.182Z,0.00
2022-11-25T04:12:45.181Z,0.00
2022-11-25T04:13:45.175Z,0.00
2022-11-25T04:14:45.170Z,0.00
2022-11-25T04:15:45.172Z,0.00
2022-11-25T04:16:45.278Z,0.00
2022-11-25T04:17:45.162Z,0.00
2022-11-25T04:18:45.156Z,0.00
2022-11-25T04:19:45.163Z,0.00
2022-11-25T04:20:45.148Z,0.00
2022-11-25T04:21:50.781Z,0.00
2022-11-25T04:22:45.163Z,0.00
2022-11-25T04:23:45.140Z,0.00
2022-11-25T04:24:45.134Z,0.00
2022-11-25T04:25:45.139Z,0.00
2022-11-25T04:26:45.127Z,0.00
2022-11-25T04:27:45.128Z,0.00
2022-11-25T04:28:45.126Z,0.00
2022-11-25T04:29:45.122Z,0.00
2022-11-25T04:30:45.132Z,0.00
2022-11-25T04:31:45.112Z,0.00
2022-11-25T04:32:45.108Z,0.00
2022-11-25T04:33:49.639Z,0.00
2022-11-25T04:34:45.101Z,0.00
2022-11-25T04:35:45.096Z,0.00
2022-11-25T04:36:45.095Z,0.00
2022-11-25T04:37:45.095Z,0.00
2022-11-25T04:38:45.105Z,0.00
2022-11-25T04:39:45.086Z,0.00
2022-11-25T04:40:45.077Z,0.00
2022-11-25T04:41:45.084Z,0.00
2022-11-25T04:42:45.078Z,0.00
2022-11-25T04:43:45.070Z,0.00
2022-11-25T04:45:01.131Z,0.00
2022-11-25T04:46:12.513Z,0.00
2022-11-25T04:46:45.089Z,0.00
2022-11-25T04:47:45.060Z,0.00
2022-11-25T04:48:45.049Z,0.00
2022-11-25T04:49:45.048Z,0.00
2022-11-25T04:50:45.041Z,0.00
2022-11-25T04:51:45.046Z,0.00
2022-11-25T04:52:45.032Z,0.00
2022-11-25T04:53:45.036Z,0.00
2022-11-25T04:54:29.865Z,0.00
2022-11-25T04:55:29.835Z,0.00
2022-11-25T04:56:29.829Z,0.00
2022-11-25T04:57:29.824Z,0.00
2022-11-25T04:58:29.822Z,0.00
2022-11-25T04:59:29.816Z,0.00
2022-11-25T05:00:29.818Z,0.00
2022-11-25T05:01:29.925Z,0.00
2022-11-25T05:02:30.041Z,0.00
2022-11-25T05:03:29.807Z,0.00
2022-11-25T05:04:29.799Z,0.00
2022-11-25T05:05:29.802Z,0.00
2022-11-25T05:06:29.792Z,0.00
2022-11-25T05:07:29.955Z,0.00
2022-11-25T05:08:29.790Z,0.00
2022-11-25T05:09:29.786Z,0.00
2022-11-25T05:10:29.808Z,0.00
2022-11-25T05:11:29.779Z,0.00
2022-11-25T05:12:29.775Z,0.00
2022-11-25T05:13:29.776Z,0.00
2022-11-25T05:14:29.769Z,0.00
2022-11-25T05:15:29.765Z,0.00
2022-11-25T05:16:29.788Z,0.00
2022-11-25T05:17:29.762Z,0.00
2022-11-25T05:18:29.751Z,0.00
2022-11-25T05:19:29.759Z,0.00
2022-11-25T05:20:29.754Z,0.00
2022-11-25T05:21:29.748Z,0.00
2022-11-25T05:22:29.745Z,0.00
2022-11-25T05:23:29.743Z,0.00
2022-11-25T05:24:29.731Z,0.00
2022-11-25T05:25:29.741Z,0.00
2022-11-25T05:26:29.755Z,0.00
2022-11-25T05:27:29.724Z,0.00
2022-11-25T05:28:29.718Z,0.00
2022-11-25T05:29:29.723Z,0.00
2022-11-25T05:30:29.772Z,0.00
2022-11-25T05:31:29.711Z,0.00
2022-11-25T05:32:29.781Z,0.00
2022-11-25T05:33:29.703Z,0.00
2022-11-25T05:34:29.700Z,0.00
2022-11-25T05:35:29.704Z,0.00
2022-11-25T05:36:29.690Z,0.00
2022-11-25T05:37:29.690Z,0.00
2022-11-25T05:38:29.683Z,0.00
2022-11-25T05:39:29.692Z,0.00
2022-11-25T05:40:29.678Z,0.00
2022-11-25T05:41:29.675Z,0.00
2022-11-25T05:42:29.729Z,0.00
2022-11-25T05:43:29.669Z,0.00
2022-11-25T05:44:29.663Z,0.00
2022-11-25T05:45:29.666Z,0.00
2022-11-25T05:46:29.845Z,0.00
2022-11-25T05:47:29.658Z,0.00
2022-11-25T05:48:29.647Z,0.00
2022-11-25T05:49:29.652Z,0.00
2022-11-25T05:50:29.636Z,0.00
2022-11-25T05:51:29.641Z,0.00
2022-11-25T05:52:29.634Z,0.00
2022-11-25T05:53:29.636Z,0.00
2022-11-25T05:54:29.629Z,0.00
2022-11-25T05:55:29.633Z,0.00
2022-11-25T05:56:29.633Z,0.00
2022-11-25T05:57:29.624Z,0.00
2022-11-25T05:58:29.643Z,0.00
2022-11-25T05:59:29.610Z,0.00
2022-11-25T06:00:29.608Z,0.00
2022-11-25T06:01:29.609Z,0.00
2022-11-25T06:02:29.728Z,0.00
2022-11-25T06:03:29.699Z,0.00
2022-11-25T06:04:29.593Z,0.00
2022-11-25T06:05:29.594Z,0.00
2022-11-25T06:06:29.585Z,0.00
2022-11-25T06:07:29.659Z,0.00
2022-11-25T06:08:29.579Z,4.00
2022-11-25T06:09:29.580Z,4.00
2022-11-25T06:10:29.577Z,0.00
2022-11-25T06:11:29.574Z,0.00
2022-11-25T06:12:29.569Z,0.00
2022-11-25T06:13:29.568Z,0.00
2022-11-25T06:14:29.585Z,0.00
2022-11-25T06:15:29.574Z,0.00
2022-11-25T06:16:29.579Z,4.00
2022-11-25T06:17:29.553Z,4.00
2022-11-25T06:18:29.550Z,0.00
2022-11-25T06:19:29.544Z,4.00
2022-11-25T06:20:29.538Z,4.00
2022-11-25T06:21:29.539Z,4.00
2022-11-25T06:22:29.531Z,8.00
2022-11-25T06:23:29.533Z,4.00
2022-11-25T06:24:29.524Z,8.00
2022-11-25T06:25:29.522Z,8.00
2022-11-25T06:26:29.516Z,12.00
2022-11-25T06:27:43.948Z,12.00
2022-11-25T06:28:29.515Z,12.00
2022-11-25T06:29:29.520Z,12.00
2022-11-25T06:30:29.525Z,16.00
2022-11-25T06:31:29.596Z,20.00
2022-11-25T06:32:32.139Z,24.00
2022-11-25T06:33:29.502Z,24.00
2022-11-25T06:34:29.489Z,32.00
2022-11-25T06:35:29.485Z,32.00
2022-11-25T06:36:29.494Z,36.00
2022-11-25T06:37:29.494Z,44.00
2022-11-25T06:38:29.476Z,48.00
2022-11-25T06:39:29.476Z,52.00
2022-11-25T06:40:29.466Z,56.00
2022-11-25T06:41:29.467Z,64.00
2022-11-25T06:42:29.462Z,68.00
2022-11-25T06:43:29.481Z,76.00
2022-11-25T06:44:29.460Z,84.00
2022-11-25T06:45:29.454Z,96.00
2022-11-25T06:46:29.564Z,108.00
2022-11-25T06:47:29.446Z,120.00
2022-11-25T06:48:29.440Z,132.00
2022-11-25T06:49:29.441Z,144.00
2022-11-25T06:50:29.436Z,156.00
2022-11-25T06:51:29.431Z,164.00
2022-11-25T06:52:29.426Z,180.00
2022-11-25T06:53:29.430Z,196.00
2022-11-25T06:54:29.419Z,216.00
2022-11-25T06:55:29.417Z,228.00
2022-11-25T06:56:29.413Z,244.00
2022-11-25T06:57:29.414Z,264.00
2022-11-25T06:58:35.840Z,272.00
2022-11-25T06:59:29.407Z,284.00
2022-11-25T07:00:29.482Z,296.00
2022-11-25T07:01:29.436Z,312.00
2022-11-25T07:02:31.435Z,320.00
2022-11-25T07:03:29.395Z,336.00
2022-11-25T07:04:29.383Z,344.00
2022-11-25T07:05:29.386Z,360.00
2022-11-25T07:06:29.376Z,372.00
2022-11-25T07:07:29.413Z,388.00
2022-11-25T07:08:33.690Z,400.00
2022-11-25T07:09:29.369Z,412.00
2022-11-25T07:10:29.392Z,428.00
2022-11-25T07:11:29.364Z,444.00
2022-11-25T07:12:29.353Z,456.00
2022-11-25T07:13:29.354Z,468.00
2022-11-25T07:14:29.348Z,488.00
2022-11-25T07:15:29.348Z,504.00
2022-11-25T07:16:29.425Z,520.00
2022-11-25T07:17:29.340Z,532.00
2022-11-25T07:18:29.355Z,548.00
2022-11-25T07:19:29.334Z,568.00
2022-11-25T07:20:29.329Z,572.00
2022-11-25T07:21:29.329Z,572.00
2022-11-25T07:22:29.317Z,572.00
2022-11-25T07:23:29.371Z,588.00
2022-11-25T07:24:29.317Z,592.00
2022-11-25T07:25:30.834Z,572.00
2022-11-25T07:26:29.306Z,580.00
2022-11-25T07:27:29.309Z,592.00
2022-11-25T07:28:29.296Z,608.00
2022-11-25T07:29:54.181Z,624.00
2022-11-25T07:31:21.870Z,636.00
2022-11-25T07:31:32.407Z,640.00
2022-11-25T07:32:29.288Z,652.00
2022-11-25T07:33:29.312Z,656.00
2022-11-25T07:34:29.298Z,652.00
2022-11-25T07:35:29.281Z,664.00
2022-11-25T07:36:29.267Z,720.00
2022-11-25T07:37:29.285Z,716.00
2022-11-25T07:38:29.261Z,800.00
2022-11-25T07:39:29.264Z,984.00
2022-11-25T07:40:29.256Z,1020.00
2022-11-25T07:41:29.252Z,960.00
2022-11-25T07:42:29.243Z,1052.00
2022-11-25T07:43:29.249Z,1176.00
2022-11-25T07:44:29.239Z,1220.00
2022-11-25T07:45:29.238Z,1260.00
2022-11-25T07:46:29.293Z,1320.00
2022-11-25T07:47:29.235Z,1456.00
2022-11-25T07:48:29.226Z,1304.00
2022-11-25T07:49:29.224Z,1188.00
2022-11-25T07:50:29.243Z,1472.00
2022-11-25T07:51:29.215Z,1284.00
2022-11-25T07:52:29.209Z,1332.00
2022-11-25T07:53:29.213Z,1408.00
2022-11-25T07:54:29.200Z,1240.00
2022-11-25T07:55:29.200Z,1220.00
2022-11-25T07:56:29.198Z,1272.00
2022-11-25T07:57:29.195Z,1340.00
2022-11-25T07:58:29.187Z,968.00
2022-11-25T07:59:29.189Z,1360.00
2022-11-25T08:00:29.177Z,1428.00
2022-11-25T08:01:29.240Z,1700.00
2022-11-25T08:02:29.297Z,1236.00
2022-11-25T08:03:29.172Z,1456.00
2022-11-25T08:04:29.167Z,1644.00
2022-11-25T08:05:29.166Z,1428.00
2022-11-25T08:06:29.182Z,1476.00
2022-11-25T08:07:34.889Z,1780.00
2022-11-25T08:08:29.149Z,1532.00
2022-11-25T08:09:29.155Z,1680.00
2022-11-25T08:10:29.147Z,1780.00
2022-11-25T08:11:29.148Z,1544.00
2022-11-25T08:12:29.133Z,2156.00
2022-11-25T08:13:29.135Z,1956.00
2022-11-25T08:14:29.135Z,1716.00
2022-11-25T08:15:29.139Z,1904.00
2022-11-25T08:16:29.181Z,2212.00
2022-11-25T08:17:29.123Z,2220.00
2022-11-25T08:18:29.122Z,2192.00
2022-11-25T08:19:31.587Z,2224.00
2022-11-25T08:20:29.114Z,2480.00
2022-11-25T08:21:29.115Z,2612.00
2022-11-25T08:22:29.131Z,2340.00
2022-11-25T08:23:29.103Z,2600.00
2022-11-25T08:24:29.095Z,2304.00
2022-11-25T08:25:29.094Z,2336.00
2022-11-25T08:26:29.084Z,2736.00
2022-11-25T08:27:29.088Z,2640.00
2022-11-25T08:28:29.083Z,2256.00
2022-11-25T08:29:29.087Z,2524.00
2022-11-25T08:30:29.075Z,2248.00
2022-11-25T08:31:29.145Z,2752.00
2022-11-25T08:32:29.070Z,2456.00
2022-11-25T08:33:29.066Z,2032.00
2022-11-25T08:34:29.069Z,2924.00
2022-11-25T08:35:29.059Z,2764.00
2022-11-25T08:36:29.052Z,2788.00
2022-11-25T08:37:29.055Z,2804.00
2022-11-25T08:38:29.079Z,2884.00
2022-11-25T08:39:51.015Z,2920.00
2022-11-25T08:40:29.044Z,3124.00
2022-11-25T08:41:29.046Z,2696.00
2022-11-25T08:42:29.040Z,2576.00
2022-11-25T08:43:29.738Z,2856.00
2022-11-25T08:44:29.026Z,2684.00
2022-11-25T08:45:29.023Z,2568.00
2022-11-25T08:46:29.100Z,2704.00
2022-11-25T08:47:29.020Z,2712.00
2022-11-25T08:48:29.011Z,3060.00
2022-11-25T08:49:29.016Z,3172.00
2022-11-25T08:50:29.006Z,2916.00
2022-11-25T08:51:29.009Z,2740.00
2022-11-25T08:52:29.002Z,2372.00
2022-11-25T08:53:29.001Z,2088.00
2022-11-25T08:54:29.022Z,2308.00
2022-11-25T08:55:28.990Z,2648.00
2022-11-25T08:56:28.987Z,2660.00
2022-11-25T08:57:28.986Z,2708.00
2022-11-25T08:58:28.980Z,2512.00
2022-11-25T08:59:28.980Z,2764.00
2022-11-25T09:00:28.990Z,3248.00
2022-11-25T09:01:29.080Z,3388.00
2022-11-25T09:02:29.018Z,3592.00
2022-11-25T09:03:29.031Z,3520.00
2022-11-25T09:04:28.961Z,2720.00
2022-11-25T09:05:28.963Z,3200.00
2022-11-25T09:06:28.958Z,2980.00
2022-11-25T09:07:30.804Z,2888.00
2022-11-25T09:08:28.955Z,2156.00
2022-11-25T09:09:28.949Z,2548.00
2022-11-25T09:10:28.967Z,2868.00
2022-11-25T09:11:29.123Z,3272.00
2022-11-25T09:12:28.935Z,3044.00
2022-11-25T09:13:28.931Z,3132.00
2022-11-25T09:14:29.020Z,3024.00
2022-11-25T09:15:28.926Z,2800.00
2022-11-25T09:16:29.036Z,2768.00
2022-11-25T09:17:28.919Z,3172.00
2022-11-25T09:18:28.918Z,3056.00
2022-11-25T09:19:28.917Z,3192.00
2022-11-25T09:20:28.911Z,3280.00
2022-11-25T09:21:28.902Z,3424.00
2022-11-25T09:22:28.901Z,3568.00
2022-11-25T09:23:28.908Z,3576.00
2022-11-25T09:24:28.901Z,3524.00
2022-11-25T09:25:28.893Z,3484.00
2022-11-25T09:26:28.921Z,3680.00
2022-11-25T09:27:28.891Z,3288.00
2022-11-25T09:28:28.890Z,3572.00
2022-11-25T09:29:28.882Z,3868.00
2022-11-25T09:30:28.888Z,4028.00
2022-11-25T09:31:28.955Z,3896.00
2022-11-25T09:32:28.896Z,3668.00
2022-11-25T09:33:28.877Z,2708.00
2022-11-25T09:34:28.872Z,2796.00
2022-11-25T09:35:28.863Z,3048.00
2022-11-25T09:36:28.869Z,2984.00
2022-11-25T09:37:28.854Z,3436.00
2022-11-25T09:38:28.856Z,4244.00
2022-11-25T09:39:28.847Z,4180.00
2022-11-25T09:40:28.850Z,3968.00
2022-11-25T09:41:28.846Z,4172.00
2022-11-25T09:42:28.874Z,3488.00
2022-11-25T09:43:28.840Z,3832.00
2022-11-25T09:44:28.841Z,4408.00
2022-11-25T09:45:28.840Z,4356.00
2022-11-25T09:46:28.881Z,5000.00
2022-11-25T09:47:28.829Z,5300.00
2022-11-25T09:48:28.842Z,4440.00
2022-11-25T09:49:28.829Z,4096.00
2022-11-25T09:50:28.826Z,3536.00
2022-11-25T09:51:28.817Z,3204.00
2022-11-25T09:52:28.817Z,4132.00
2022-11-25T09:53:28.813Z,3508.00
2022-11-25T09:54:28.886Z,3564.00
2022-11-25T09:55:28.805Z,4172.00
2022-11-25T09:56:28.808Z,4108.00
2022-11-25T09:57:28.799Z,3984.00
2022-11-25T09:58:28.824Z,3792.00
2022-11-25T09:59:28.790Z,3576.00
2022-11-25T10:00:28.792Z,3708.00
2022-11-25T10:01:28.789Z,3788.00
2022-11-25T10:02:28.919Z,3564.00
2022-11-25T10:03:28.841Z,4312.00
2022-11-25T10:04:28.788Z,4416.00
2022-11-25T10:05:28.787Z,3548.00
2022-11-25T10:06:28.848Z,3124.00
2022-11-25T10:07:28.769Z,3276.00
2022-11-25T10:08:28.774Z,3304.00
2022-11-25T10:09:28.770Z,3760.00
2022-11-25T10:10:28.770Z,4900.00
2022-11-25T10:11:28.758Z,4436.00
2022-11-25T10:12:28.763Z,4624.00
2022-11-25T10:13:28.760Z,4896.00
2022-11-25T10:14:28.781Z,5300.00
2022-11-25T10:15:28.757Z,5408.00
2022-11-25T10:16:28.806Z,5552.00
2022-11-25T10:17:28.749Z,4672.00
2022-11-25T10:18:28.752Z,4128.00
2022-11-25T10:19:28.741Z,4052.00
2022-11-25T10:20:28.742Z,4272.00
2022-11-25T10:21:28.740Z,5404.00
2022-11-25T10:22:28.733Z,5856.00
2022-11-25T10:23:28.851Z,6620.00
2022-11-25T10:24:28.731Z,7552.00
2022-11-25T10:25:28.722Z,7628.00
2022-11-25T10:26:28.725Z,6516.00
2022-11-25T10:27:28.721Z,6432.00
2022-11-25T10:28:28.724Z,6280.00
2022-11-25T10:29:28.714Z,5568.00
2022-11-25T10:30:28.742Z,5108.00
2022-11-25T10:31:28.769Z,4816.00
2022-11-25T10:32:28.709Z,4848.00
2022-11-25T10:33:28.756Z,5140.00
2022-11-25T10:34:28.704Z,5392.00
2022-11-25T10:35:28.697Z,5580.00
2022-11-25T10:36:28.701Z,5020.00
2022-11-25T10:37:28.697Z,4168.00
2022-11-25T10:38:28.706Z,4400.00
2022-11-25T10:39:28.694Z,4112.00
2022-11-25T10:40:28.686Z,4848.00
2022-11-25T10:41:28.684Z,4960.00
2022-11-25T10:42:28.684Z,4056.00
2022-11-25T10:43:31.675Z,3528.00
2022-11-25T10:44:28.685Z,2964.00
2022-11-25T10:45:28.679Z,3940.00
2022-11-25T10:46:49.634Z,5812.00
2022-11-25T10:47:28.749Z,6384.00
2022-11-25T10:48:28.668Z,5980.00
2022-11-25T10:49:28.670Z,5052.00
2022-11-25T10:50:28.670Z,4344.00
2022-11-25T10:51:28.665Z,3828.00
2022-11-25T10:52:28.661Z,3108.00
2022-11-25T10:53:28.669Z,4520.00
2022-11-25T10:54:28.658Z,5304.00
2022-11-25T10:55:28.648Z,5324.00
2022-11-25T10:56:28.652Z,5140.00
2022-11-25T10:57:28.645Z,5492.00
2022-11-25T10:58:28.650Z,5792.00
2022-11-25T10:59:28.638Z,4860.00
2022-11-25T11:00:28.648Z,4744.00
2022-11-25T11:01:28.682Z,5984.00
2022-11-25T11:03:28.664Z,4592.00
2022-11-25T11:04:28.644Z,4772.00
2022-11-25T11:05:28.635Z,4460.00
2022-11-25T11:06:28.631Z,4428.00
2022-11-25T11:07:28.671Z,3964.00
2022-11-25T11:08:28.628Z,4256.00
2022-11-25T11:09:28.624Z,3824.00
2022-11-25T11:10:28.627Z,3308.00
2022-11-25T11:11:28.616Z,3808.00
2022-11-25T11:12:28.618Z,4164.00
2022-11-25T11:13:28.616Z,4632.00
2022-11-25T11:14:28.611Z,5292.00
2022-11-25T11:15:28.610Z,4452.00
2022-11-25T11:16:28.653Z,4156.00
2022-11-25T11:17:31.925Z,3948.00
2022-11-25T11:18:28.599Z,3660.00
2022-11-25T11:19:28.620Z,3856.00
2022-11-25T11:20:28.603Z,4108.00
2022-11-25T11:21:28.598Z,3988.00
2022-11-25T11:22:28.596Z,3780.00
2022-11-25T11:23:28.598Z,3344.00
2022-11-25T11:24:28.599Z,3372.00
2022-11-25T11:25:28.588Z,4072.00
2022-11-25T11:26:28.593Z,4452.00
2022-11-25T11:27:28.584Z,3932.00
2022-11-25T11:28:28.592Z,4636.00
2022-11-25T11:29:28.580Z,4316.00
2022-11-25T11:30:28.575Z,4456.00
2022-11-25T11:31:28.729Z,5612.00
2022-11-25T11:32:28.571Z,4752.00
2022-11-25T11:33:28.617Z,3860.00
2022-11-25T11:34:28.567Z,3000.00
2022-11-25T11:35:28.590Z,3024.00
2022-11-25T11:36:28.571Z,3664.00
2022-11-25T11:37:28.559Z,4112.00
2022-11-25T11:38:28.565Z,3712.00
2022-11-25T11:39:28.554Z,3040.00
2022-11-25T11:40:28.558Z,3076.00
2022-11-25T11:41:28.553Z,4300.00
2022-11-25T11:42:28.550Z,3576.00
2022-11-25T11:43:28.549Z,3392.00
2022-11-25T11:44:28.545Z,2860.00
2022-11-25T11:45:28.543Z,2696.00
2022-11-25T11:46:28.615Z,2796.00
2022-11-25T11:47:28.545Z,3172.00
2022-11-25T11:48:28.571Z,3776.00
2022-11-25T11:49:30.709Z,4364.00
2022-11-25T11:50:28.531Z,4596.00
2022-11-25T11:51:28.645Z,4620.00
2022-11-25T11:52:28.534Z,4516.00
2022-11-25T11:53:28.530Z,3728.00
2022-11-25T11:54:28.524Z,3052.00
2022-11-25T11:55:28.520Z,2500.00
2022-11-25T11:56:35.299Z,2768.00
2022-11-25T11:57:28.513Z,3200.00
2022-11-25T11:58:28.513Z,2944.00
2022-11-25T11:59:28.521Z,2996.00
2022-11-25T12:00:28.510Z,3320.00
2022-11-25T12:01:28.514Z,3924.00
2022-11-25T12:02:28.583Z,4820.00
2022-11-25T12:03:28.570Z,4860.00
2022-11-25T12:04:28.505Z,4100.00
2022-11-25T12:05:28.501Z,3948.00
2022-11-25T12:06:28.498Z,3080.00
2022-11-25T12:07:28.605Z,2356.00
2022-11-25T12:08:28.502Z,1884.00
2022-11-25T12:09:28.491Z,1968.00
2022-11-25T12:10:28.523Z,2164.00
2022-11-25T12:11:28.488Z,2104.00
2022-11-25T12:12:28.494Z,2072.00
2022-11-25T12:13:28.486Z,2088.00
2022-11-25T12:14:28.485Z,2080.00
2022-11-25T12:15:28.477Z,2264.00
2022-11-25T12:16:28.533Z,2004.00
2022-11-25T12:17:28.477Z,1916.00
2022-11-25T12:18:28.474Z,1884.00
2022-11-25T12:19:28.482Z,1924.00
2022-11-25T12:20:28.473Z,2444.00
2022-11-25T12:21:28.476Z,2580.00
2022-11-25T12:22:28.469Z,2392.00
2022-11-25T12:23:28.490Z,2548.00
2022-11-25T12:24:28.469Z,3372.00
2022-11-25T12:25:28.474Z,2640.00
2022-11-25T12:26:28.467Z,2800.00
2022-11-25T12:27:28.456Z,2996.00
2022-11-25T12:28:28.453Z,2896.00
2022-11-25T12:29:28.455Z,2504.00
2022-11-25T12:30:28.454Z,2676.00
2022-11-25T12:31:28.490Z,2400.00
2022-11-25T12:32:28.452Z,2216.00
2022-11-25T12:33:28.444Z,2428.00
2022-11-25T12:34:28.442Z,2200.00
2022-11-25T12:35:28.452Z,2024.00
2022-11-25T12:36:28.443Z,1892.00
2022-11-25T12:37:28.438Z,1800.00
2022-11-25T12:38:28.436Z,1856.00
2022-11-25T12:39:28.459Z,1708.00
2022-11-25T12:40:28.432Z,1592.00
2022-11-25T12:41:28.429Z,1784.00
2022-11-25T12:42:28.427Z,1820.00
2022-11-25T12:43:28.421Z,1796.00
2022-11-25T12:44:28.435Z,1536.00
2022-11-25T12:45:28.451Z,1404.00